createdAt,value
2022-11-13T00:01:21.365Z,2.60
2022-11-13T00:02:41.546Z,2.83
2022-11-13T00:04:02.126Z,3.40
2022-11-13T00:05:22.482Z,3.17
2022-11-13T00:06:42.693Z,4.45
2022-11-13T00:08:03.125Z,3.50
2022-11-13T00:09:23.718Z,4.00
2022-11-13T00:10:43.973Z,5.13
2022-11-13T00:12:04.363Z,3.92
2022-11-13T00:13:29.128Z,3.78
2022-11-13T00:14:50.423Z,4.50
2022-11-13T00:16:13.155Z,4.43
2022-11-13T00:17:33.444Z,3.63
2022-11-13T00:18:53.976Z,2.70
2022-11-13T00:20:14.502Z,3.58
2022-11-13T00:21:34.537Z,4.50
2022-11-13T00:22:55.074Z,3.67
2022-11-13T00:24:15.026Z,2.67
2022-11-13T00:25:35.838Z,3.72
2022-11-13T00:26:56.178Z,4.32
2022-11-13T00:28:16.597Z,4.35
2022-11-13T00:29:36.758Z,3.45
2022-11-13T00:31:05.057Z,4.20
2022-11-13T00:32:26.699Z,3.90
2022-11-13T00:35:27.073Z,3.75
2022-11-13T00:36:47.751Z,3.28
2022-11-13T00:38:08.097Z,4.07
2022-11-13T00:39:28.325Z,3.50
2022-11-13T00:40:48.684Z,4.45
2022-11-13T00:42:09.017Z,4.72
2022-11-13T00:43:29.461Z,5.47
2022-11-13T00:44:49.844Z,5.25
2022-11-13T00:46:10.425Z,3.60
2022-11-13T00:47:30.754Z,3.65
2022-11-13T00:48:50.877Z,4.03
2022-11-13T00:50:11.174Z,7.03
2022-11-13T00:51:31.725Z,2.00
2022-11-13T00:52:52.158Z,4.40
2022-11-13T00:54:12.538Z,2.60
2022-11-13T00:55:32.633Z,4.40
2022-11-13T00:56:53.017Z,4.63
2022-11-13T00:58:13.927Z,3.25
2022-11-13T00:59:34.101Z,2.72
2022-11-13T01:00:54.422Z,3.53
2022-11-13T01:02:15.391Z,5.05
2022-11-13T01:03:35.900Z,6.60
2022-11-13T01:04:56.297Z,5.10
2022-11-13T01:06:25.853Z,3.67
2022-11-13T01:07:46.258Z,3.30
2022-11-13T01:09:06.642Z,2.75
2022-11-13T01:10:26.813Z,4.10
2022-11-13T01:11:47.182Z,2.78
2022-11-13T01:13:07.433Z,3.75
2022-11-13T01:14:27.766Z,4.78
2022-11-13T01:15:48.471Z,2.85
2022-11-13T01:17:08.674Z,3.83
2022-11-13T01:18:29.010Z,3.15
2022-11-13T01:19:49.476Z,5.20
2022-11-13T01:21:12.687Z,4.68
2022-11-13T01:22:32.787Z,3.60
2022-11-13T01:23:54.734Z,3.83
2022-11-13T01:25:15.579Z,4.65
2022-11-13T01:26:35.540Z,4.38
2022-11-13T01:27:55.932Z,3.00
2022-11-13T01:29:15.926Z,4.20
2022-11-13T01:30:38.833Z,5.30
2022-11-13T01:31:59.504Z,3.95
2022-11-13T01:33:19.877Z,4.38
2022-11-13T01:34:40.282Z,4.13
2022-11-13T01:36:09.023Z,3.45
2022-11-13T01:37:29.442Z,4.70
2022-11-13T01:38:50.217Z,4.88
2022-11-13T01:40:12.799Z,3.28
2022-11-13T01:41:34.490Z,4.97
2022-11-13T01:42:54.834Z,4.15
2022-11-13T01:44:16.731Z,2.55
2022-11-13T01:45:58.766Z,3.58
2022-11-13T01:47:20.564Z,3.50
2022-11-13T01:48:48.759Z,3.22
2022-11-13T01:50:10.992Z,4.95
2022-11-13T01:51:39.520Z,3.75
2022-11-13T01:52:59.966Z,3.70
2022-11-13T01:54:25.583Z,3.72
2022-11-13T01:55:46.489Z,2.60
2022-11-13T01:57:07.157Z,4.07
2022-11-13T01:58:28.049Z,3.53
2022-11-13T01:59:52.942Z,4.70
2022-11-13T02:01:12.933Z,4.82
2022-11-13T02:02:33.182Z,4.00
2022-11-13T02:03:53.330Z,4.30
2022-11-13T02:05:13.584Z,4.22
2022-11-13T02:06:42.279Z,3.35
2022-11-13T02:08:10.091Z,3.50
2022-11-13T02:09:35.390Z,4.38
2022-11-13T02:10:56.562Z,3.92
2022-11-13T02:12:22.165Z,3.05
2022-11-13T02:13:43.605Z,5.25
2022-11-13T02:15:06.889Z,4.80
2022-11-13T02:16:27.718Z,4.22
2022-11-13T02:17:53.961Z,3.00
2022-11-13T02:19:36.229Z,3.33
2022-11-13T02:21:09.913Z,4.00
2022-11-13T02:22:43.842Z,3.45
2022-11-13T02:24:15.857Z,2.80
2022-11-13T02:25:37.361Z,4.85
2022-11-13T02:27:01.952Z,4.38
2022-11-13T02:28:22.154Z,4.03
2022-11-13T02:29:42.528Z,5.65
2022-11-13T02:31:11.399Z,4.10
2022-11-13T02:32:31.474Z,4.90
2022-11-13T02:33:51.858Z,4.63
2022-11-13T02:35:15.291Z,3.97
2022-11-13T02:36:36.406Z,3.25
2022-11-13T02:38:00.232Z,4.78
2022-11-13T02:39:20.653Z,5.63
2022-11-13T02:40:40.879Z,4.65
2022-11-13T02:42:01.194Z,3.00
2022-11-13T02:43:21.323Z,5.18
2022-11-13T02:44:41.246Z,3.63
2022-11-13T02:46:01.622Z,4.35
2022-11-13T02:47:22.069Z,4.30
2022-11-13T02:48:42.203Z,4.13
2022-11-13T02:50:02.623Z,4.85
2022-11-13T02:51:23.072Z,5.70
2022-11-13T02:52:43.361Z,6.03
2022-11-13T02:54:03.951Z,4.15
2022-11-13T02:55:24.699Z,4.25
2022-11-13T02:56:45.198Z,3.97
2022-11-13T02:58:05.318Z,4.47
2022-11-13T02:59:25.382Z,4.32
2022-11-13T03:00:45.642Z,5.30
2022-11-13T03:02:05.738Z,5.35
2022-11-13T03:03:55.927Z,5.35
2022-11-13T03:05:14.228Z,4.20
2022-11-13T03:06:34.595Z,3.25
2022-11-13T03:07:54.810Z,4.05
2022-11-13T03:09:15.585Z,4.75
2022-11-13T03:10:36.504Z,5.40
2022-11-13T03:11:56.515Z,4.28
2022-11-13T03:13:16.403Z,5.10
2022-11-13T03:14:36.735Z,2.88
2022-11-13T03:15:56.856Z,5.05
2022-11-13T03:17:16.873Z,5.18
2022-11-13T03:18:37.417Z,3.83
2022-11-13T03:19:58.466Z,4.78
2022-11-13T03:21:18.328Z,3.95
2022-11-13T03:22:38.539Z,4.60
2022-11-13T03:23:58.785Z,4.72
2022-11-13T03:25:19.217Z,5.22
2022-11-13T03:26:39.528Z,4.63
2022-11-13T03:28:00.311Z,5.05
2022-11-13T03:29:20.267Z,5.63
2022-11-13T03:30:40.574Z,3.72
2022-11-13T03:32:00.857Z,4.72
2022-11-13T03:33:21.110Z,5.82
2022-11-13T03:34:41.236Z,4.00
2022-11-13T03:36:01.748Z,7.00
2022-11-13T03:37:21.836Z,5.68
2022-11-13T03:38:41.887Z,4.80
2022-11-13T03:40:02.273Z,4.70
2022-11-13T03:41:23.431Z,5.35
2022-11-13T03:42:43.661Z,5.32
2022-11-13T03:44:03.993Z,3.13
2022-11-13T03:45:24.318Z,4.07
2022-11-13T03:46:44.510Z,5.60
2022-11-13T03:48:05.046Z,6.00
2022-11-13T03:49:25.104Z,5.72
2022-11-13T03:50:49.417Z,6.47
2022-11-13T03:52:09.758Z,5.13
2022-11-13T03:53:29.855Z,4.30
2022-11-13T03:54:50.168Z,4.75
2022-11-13T03:56:10.340Z,4.85
2022-11-13T03:57:30.456Z,4.13
2022-11-13T03:58:50.802Z,4.30
2022-11-13T04:00:12.040Z,5.35
2022-11-13T04:01:32.447Z,4.47
2022-11-13T04:02:52.771Z,5.47
2022-11-13T04:04:12.994Z,3.92
2022-11-13T04:05:33.307Z,5.40
2022-11-13T04:06:53.468Z,7.78
2022-11-13T04:08:14.155Z,6.38
2022-11-13T04:09:34.272Z,3.53
2022-11-13T04:10:54.673Z,4.28
2022-11-13T04:12:15.036Z,5.88
2022-11-13T04:13:35.286Z,4.35
2022-11-13T04:14:55.558Z,4.68
2022-11-13T04:16:15.900Z,5.30
2022-11-13T04:17:37.760Z,4.72
2022-11-13T04:18:58.074Z,5.75
2022-11-13T04:20:18.341Z,4.78
2022-11-13T04:21:38.691Z,6.18
2022-11-13T04:22:59.127Z,4.28
2022-11-13T04:24:19.138Z,4.18
2022-11-13T04:25:39.097Z,5.78
2022-11-13T04:26:59.334Z,4.88
2022-11-13T04:28:19.935Z,5.63
2022-11-13T04:29:40.324Z,4.18
2022-11-13T04:31:00.704Z,3.42
2022-11-13T04:32:20.823Z,5.35
2022-11-13T04:33:41.125Z,5.97
2022-11-13T04:35:01.390Z,5.35
2022-11-13T04:36:21.169Z,5.13
2022-11-13T04:37:41.645Z,5.20
2022-11-13T04:39:02.533Z,4.60
2022-11-13T04:40:22.570Z,5.63
2022-11-13T04:42:01.279Z,4.22
2022-11-13T04:43:21.417Z,5.50
2022-11-13T04:44:41.585Z,4.95
2022-11-13T04:46:01.898Z,4.93
2022-11-13T04:47:22.178Z,3.50
2022-11-13T04:48:42.408Z,4.45
2022-11-13T04:50:03.026Z,3.85
2022-11-13T04:51:23.382Z,6.00
2022-11-13T04:52:44.219Z,4.95
2022-11-13T04:54:04.510Z,5.47
2022-11-13T04:55:24.701Z,6.60
2022-11-13T04:56:45.157Z,3.88
2022-11-13T04:58:05.568Z,6.70
2022-11-13T04:59:25.613Z,6.78
2022-11-13T05:00:45.534Z,4.72
2022-11-13T05:02:05.806Z,4.22
2022-11-13T05:03:26.113Z,6.03
2022-11-13T05:04:46.438Z,5.93
2022-11-13T05:06:08.942Z,7.68
2022-11-13T05:07:29.710Z,6.85
2022-11-13T05:08:49.649Z,6.45
2022-11-13T05:10:10.029Z,6.07
2022-11-13T05:11:29.991Z,5.78
2022-11-13T05:12:50.358Z,3.95
2022-11-13T05:14:13.953Z,6.65
2022-11-13T05:15:34.365Z,4.63
2022-11-13T05:16:54.645Z,5.03
2022-11-13T05:18:15.007Z,4.20
2022-11-13T05:19:35.655Z,5.90
2022-11-13T05:20:55.913Z,4.15
2022-11-13T05:22:16.289Z,5.22
2022-11-13T05:23:36.924Z,5.15
2022-11-13T05:24:57.283Z,5.63
2022-11-13T05:26:17.603Z,6.82
2022-11-13T05:27:37.689Z,6.13
2022-11-13T05:29:01.114Z,4.28
2022-11-13T05:30:21.186Z,5.28
2022-11-13T05:31:41.731Z,4.43
2022-11-13T05:33:02.025Z,5.45
2022-11-13T05:34:22.214Z,4.82
2022-11-13T05:35:42.457Z,6.05
2022-11-13T05:37:02.707Z,5.53
2022-11-13T05:38:22.880Z,5.32
2022-11-13T05:39:43.300Z,4.72
2022-11-13T05:41:14.083Z,4.93
2022-11-13T05:42:34.657Z,5.70
2022-11-13T05:43:59.235Z,6.75
2022-11-13T05:45:19.940Z,5.70
2022-11-13T05:46:39.820Z,4.47
2022-11-13T05:47:59.830Z,3.85
2022-11-13T05:49:20.189Z,5.65
2022-11-13T05:50:40.598Z,5.80
2022-11-13T05:52:00.789Z,5.10
2022-11-13T05:53:21.153Z,4.82
2022-11-13T05:54:41.233Z,5.60
2022-11-13T05:56:03.000Z,5.35
2022-11-13T05:57:23.379Z,4.05
2022-11-13T05:58:44.696Z,4.90
2022-11-13T06:00:05.751Z,4.53
2022-11-13T06:01:29.203Z,5.97
2022-11-13T06:02:49.654Z,6.10
2022-11-13T06:04:10.349Z,3.70
2022-11-13T06:05:30.624Z,5.03
2022-11-13T06:06:51.099Z,5.72
2022-11-13T06:08:11.565Z,6.35
2022-11-13T06:09:31.742Z,5.20
2022-11-13T06:10:51.742Z,7.78
2022-11-13T06:12:11.970Z,6.53
2022-11-13T06:13:32.611Z,6.15
2022-11-13T06:14:53.077Z,4.97
2022-11-13T06:16:22.960Z,5.43
2022-11-13T06:17:46.783Z,3.72
2022-11-13T06:19:09.688Z,5.72
2022-11-13T06:20:30.301Z,4.13
2022-11-13T06:21:50.324Z,6.28
2022-11-13T06:23:10.388Z,6.82
2022-11-13T06:24:30.686Z,9.45
2022-11-13T06:25:50.970Z,6.13
2022-11-13T06:27:11.412Z,5.72
2022-11-13T06:28:31.562Z,6.93
2022-11-13T06:29:52.092Z,4.55
2022-11-13T06:31:18.698Z,9.73
2022-11-13T06:32:39.028Z,6.20
2022-11-13T06:34:00.458Z,5.93
2022-11-13T06:35:20.857Z,4.38
2022-11-13T06:36:40.880Z,4.45
2022-11-13T06:38:01.324Z,5.93
2022-11-13T06:39:21.674Z,4.97
2022-11-13T06:40:41.930Z,5.80
2022-11-13T06:42:02.193Z,5.97
2022-11-13T06:43:22.572Z,5.60
2022-11-13T06:44:42.782Z,5.65
2022-11-13T06:46:05.535Z,4.82
2022-11-13T06:47:25.790Z,4.22
2022-11-13T06:48:46.380Z,7.63
2022-11-13T06:50:07.148Z,5.47
2022-11-13T06:51:29.362Z,5.40
2022-11-13T06:52:49.377Z,6.47
2022-11-13T06:54:09.788Z,6.03
2022-11-13T06:55:29.898Z,7.05
2022-11-13T06:56:50.310Z,5.47
2022-11-13T06:58:10.667Z,6.28
2022-11-13T06:59:30.890Z,6.30
2022-11-13T07:00:51.919Z,6.78
2022-11-13T07:02:12.254Z,6.60
2022-11-13T07:03:32.189Z,6.65
2022-11-13T07:04:52.430Z,6.50
2022-11-13T07:06:18.225Z,8.60
2022-11-13T07:07:38.442Z,5.75
2022-11-13T07:08:58.586Z,4.43
2022-11-13T07:10:18.923Z,7.85
2022-11-13T07:11:39.130Z,5.90
2022-11-13T07:13:00.344Z,6.43
2022-11-13T07:14:20.613Z,5.50
2022-11-13T07:15:40.765Z,3.78
2022-11-13T07:17:10.207Z,6.78
2022-11-13T07:18:31.616Z,4.65
2022-11-13T07:19:51.950Z,8.23
2022-11-13T07:21:13.447Z,3.50
2022-11-13T07:22:33.709Z,6.13
2022-11-13T07:23:53.879Z,5.55
2022-11-13T07:25:14.269Z,6.22
2022-11-13T07:26:34.545Z,5.65
2022-11-13T07:27:55.219Z,5.82
2022-11-13T07:29:15.951Z,5.43
2022-11-13T07:30:36.016Z,6.70
2022-11-13T07:31:56.362Z,5.45
2022-11-13T07:33:16.838Z,7.07
2022-11-13T07:34:36.904Z,6.03
2022-11-13T07:35:57.914Z,4.80
2022-11-13T07:37:18.952Z,4.85
2022-11-13T07:38:39.047Z,5.05
2022-11-13T07:39:59.396Z,5.82
2022-11-13T07:41:19.484Z,4.57
2022-11-13T07:42:40.074Z,5.10
2022-11-13T07:44:00.094Z,5.13
2022-11-13T07:45:20.257Z,4.45
2022-11-13T07:46:40.525Z,7.00
2022-11-13T07:48:04.528Z,5.07
2022-11-13T07:49:24.674Z,5.53
2022-11-13T07:50:44.739Z,5.10
2022-11-13T07:52:05.193Z,5.47
2022-11-13T07:53:25.126Z,5.38
2022-11-13T07:54:45.514Z,4.93
2022-11-13T07:56:06.821Z,7.13
2022-11-13T07:57:27.346Z,4.22
2022-11-13T07:58:47.657Z,6.47
2022-11-13T08:00:08.871Z,8.13
2022-11-13T08:01:28.961Z,5.40
2022-11-13T08:02:49.206Z,7.20
2022-11-13T08:04:09.573Z,4.78
2022-11-13T08:05:30.569Z,5.90
2022-11-13T08:06:50.961Z,6.03
2022-11-13T08:08:15.154Z,5.55
2022-11-13T08:09:35.145Z,5.82
2022-11-13T08:10:55.392Z,6.97
2022-11-13T08:12:15.606Z,5.85
2022-11-13T08:13:36.751Z,3.80
2022-11-13T08:14:57.091Z,6.18
2022-11-13T08:16:17.456Z,7.63
2022-11-13T08:17:37.466Z,5.97
2022-11-13T08:18:57.703Z,9.02
2022-11-13T08:20:18.100Z,7.53
2022-11-13T08:21:38.422Z,5.20
2022-11-13T08:23:03.891Z,4.20
2022-11-13T08:24:24.217Z,5.90
2022-11-13T08:25:44.585Z,4.88
2022-11-13T08:27:07.066Z,5.80
2022-11-13T08:28:27.674Z,5.47
2022-11-13T08:29:49.334Z,6.50
2022-11-13T08:31:14.038Z,7.30
2022-11-13T08:32:34.346Z,7.05
2022-11-13T08:33:54.645Z,5.55
2022-11-13T08:35:19.228Z,5.47
2022-11-13T08:36:40.437Z,4.85
2022-11-13T08:38:09.058Z,6.10
2022-11-13T08:39:29.017Z,5.47
2022-11-13T08:40:49.646Z,5.47
2022-11-13T08:42:09.776Z,9.10
2022-11-13T08:43:30.059Z,4.35
2022-11-13T08:44:50.451Z,7.95
2022-11-13T08:46:10.615Z,4.22
2022-11-13T08:47:30.897Z,7.32
2022-11-13T08:48:51.104Z,9.55
2022-11-13T08:50:11.300Z,7.95
2022-11-13T08:51:31.519Z,5.53
2022-11-13T08:52:56.121Z,6.85
2022-11-13T08:54:16.922Z,6.90
2022-11-13T08:55:37.410Z,6.95
2022-11-13T08:57:01.953Z,7.18
2022-11-13T08:58:25.082Z,5.68
2022-11-13T08:59:44.943Z,5.78
2022-11-13T09:01:05.482Z,6.15
2022-11-13T09:02:25.518Z,6.53
2022-11-13T09:03:45.781Z,8.65
2022-11-13T09:05:06.543Z,4.70
2022-11-13T09:06:27.018Z,5.72
2022-11-13T09:07:47.373Z,4.82
2022-11-13T09:09:07.808Z,9.35
2022-11-13T09:10:28.973Z,6.22
2022-11-13T09:11:49.732Z,4.75
2022-11-13T09:13:11.690Z,5.47
2022-11-13T09:14:31.798Z,6.47
2022-11-13T09:15:51.886Z,6.43
2022-11-13T09:17:12.404Z,6.53
2022-11-13T09:18:32.458Z,4.43
2022-11-13T09:19:52.687Z,8.55
2022-11-13T09:21:12.922Z,5.20
2022-11-13T09:22:34.791Z,5.97
2022-11-13T09:23:55.054Z,6.93
2022-11-13T09:25:15.402Z,5.40
2022-11-13T09:26:36.158Z,5.38
2022-11-13T09:27:59.394Z,7.63
2022-11-13T09:29:19.881Z,7.00
2022-11-13T09:30:40.599Z,6.10
2022-11-13T09:32:00.732Z,8.10
2022-11-13T09:33:21.023Z,5.05
2022-11-13T09:34:41.287Z,4.60
2022-11-13T09:36:02.285Z,6.45
2022-11-13T09:37:22.269Z,7.70
2022-11-13T09:38:42.484Z,8.43
2022-11-13T09:40:03.249Z,6.78
2022-11-13T09:41:30.036Z,4.63
2022-11-13T09:42:50.687Z,7.90
2022-11-13T09:44:43.022Z,8.35
2022-11-13T09:46:16.075Z,7.50
2022-11-13T09:47:46.538Z,8.55
2022-11-13T09:49:09.430Z,5.00
2022-11-13T09:50:32.404Z,7.80
2022-11-13T09:52:03.909Z,5.97
2022-11-13T09:53:27.494Z,5.65
2022-11-13T09:54:47.688Z,6.55
2022-11-13T09:56:35.766Z,5.53
2022-11-13T09:58:06.616Z,7.32
2022-11-13T09:59:40.633Z,4.47
2022-11-13T10:01:01.192Z,6.30
2022-11-13T10:02:37.050Z,5.72
2022-11-13T10:04:04.121Z,6.75
2022-11-13T10:05:43.870Z,6.50
2022-11-13T10:07:19.062Z,4.53
2022-11-13T10:08:53.672Z,4.85
2022-11-13T10:10:30.778Z,7.18
2022-11-13T10:11:56.767Z,4.18
2022-11-13T10:13:42.978Z,6.63
2022-11-13T10:15:06.176Z,4.63
2022-11-13T10:16:51.170Z,6.25
2022-11-13T10:18:22.519Z,6.53
2022-11-13T10:20:02.456Z,8.73
2022-11-13T10:21:35.142Z,8.45
2022-11-13T10:23:20.542Z,7.70
2022-11-13T10:24:43.547Z,8.32
2022-11-13T10:26:18.881Z,6.35
2022-11-13T10:27:39.314Z,5.88
2022-11-13T10:29:09.521Z,5.43
2022-11-13T10:30:29.863Z,7.38
2022-11-13T10:31:51.985Z,4.90
2022-11-13T10:33:17.586Z,6.43
2022-11-13T10:34:38.260Z,7.70
2022-11-13T10:36:19.510Z,7.38
2022-11-13T10:37:55.437Z,6.30
2022-11-13T10:39:15.758Z,6.72
2022-11-13T10:40:40.379Z,8.52
2022-11-13T10:42:00.766Z,10.80
2022-11-13T10:43:26.310Z,12.05
2022-11-13T10:44:55.505Z,13.57
2022-11-13T10:46:24.420Z,8.40
2022-11-13T10:48:07.503Z,7.85
2022-11-13T10:49:31.107Z,10.48
2022-11-13T10:51:00.743Z,11.43
2022-11-13T10:52:21.160Z,10.57
2022-11-13T10:53:42.592Z,11.07
2022-11-13T10:55:22.783Z,10.80
2022-11-13T10:56:43.050Z,11.77
2022-11-13T10:58:11.937Z,13.25
2022-11-13T10:59:43.661Z,10.52
2022-11-13T11:01:14.604Z,11.48
2022-11-13T11:02:35.916Z,8.32
2022-11-13T11:03:56.022Z,6.38
2022-11-13T11:05:18.457Z,8.70
2022-11-13T11:08:28.738Z,6.70
2022-11-13T11:09:51.285Z,9.95
2022-11-13T11:11:35.904Z,5.22
2022-11-13T11:12:59.631Z,6.35
2022-11-13T11:14:25.909Z,6.95
2022-11-13T11:15:54.397Z,8.18
2022-11-13T11:17:19.069Z,8.60
2022-11-13T11:19:01.343Z,8.30
2022-11-13T11:20:45.062Z,9.07
2022-11-13T11:22:19.474Z,8.85
2022-11-13T11:24:07.152Z,9.63
2022-11-13T11:25:37.839Z,6.03
2022-11-13T11:27:02.094Z,6.38
2022-11-13T11:28:59.221Z,6.80
2022-11-13T11:30:26.410Z,6.53
2022-11-13T11:31:54.876Z,5.10
2022-11-13T11:33:32.632Z,6.80
2022-11-13T11:35:05.279Z,7.30
2022-11-13T11:36:31.777Z,5.40
2022-11-13T11:38:09.206Z,6.25
2022-11-13T11:39:46.612Z,6.72
2022-11-13T11:41:16.513Z,6.35
2022-11-13T11:42:47.358Z,7.90
2022-11-13T11:44:28.612Z,7.80
2022-11-13T11:45:48.945Z,8.85
2022-11-13T11:47:17.974Z,5.72
2022-11-13T11:48:38.695Z,7.05
2022-11-13T11:49:59.212Z,6.47
2022-11-13T11:51:31.373Z,8.10
2022-11-13T11:53:10.866Z,5.97
2022-11-13T11:54:41.998Z,7.45
2022-11-13T11:56:31.873Z,5.57
2022-11-13T11:58:13.895Z,5.97
2022-11-13T11:59:52.304Z,5.80
2022-11-13T12:01:26.843Z,5.75
2022-11-13T12:03:31.128Z,5.63
2022-11-13T12:05:03.605Z,4.45
2022-11-13T12:06:51.557Z,4.88
2022-11-13T12:08:30.868Z,4.95
2022-11-13T12:09:59.194Z,8.48
2022-11-13T12:11:34.934Z,4.93
2022-11-13T12:13:17.041Z,6.40
2022-11-13T12:15:09.310Z,7.18
2022-11-13T12:16:38.353Z,8.30
2022-11-13T12:18:19.636Z,8.77
2022-11-13T12:19:55.096Z,6.55
2022-11-13T12:21:32.286Z,5.20
2022-11-13T12:22:55.630Z,8.90
2022-11-13T12:24:54.041Z,5.35
2022-11-13T12:26:26.889Z,4.72
2022-11-13T12:27:56.665Z,6.22
2022-11-13T12:29:24.434Z,10.38
2022-11-13T12:31:07.881Z,7.72
2022-11-13T12:33:03.534Z,7.57
2022-11-13T12:34:29.814Z,6.28
2022-11-13T12:35:53.946Z,8.40
2022-11-13T12:37:20.473Z,7.43
2022-11-13T12:39:01.128Z,11.52
2022-11-13T12:40:45.299Z,7.25
2022-11-13T12:42:16.781Z,10.63
2022-11-13T12:43:59.050Z,9.70
2022-11-13T12:45:37.216Z,7.03
2022-11-13T12:47:01.305Z,10.30
2022-11-13T12:48:36.978Z,6.50
2022-11-13T12:50:03.882Z,9.80
2022-11-13T12:51:24.227Z,8.38
2022-11-13T12:52:44.250Z,8.40
2022-11-13T12:54:04.838Z,6.95
2022-11-13T12:55:28.415Z,8.50
2022-11-13T12:56:48.715Z,7.45
2022-11-13T12:58:18.845Z,9.68
2022-11-13T12:59:57.067Z,6.95
2022-11-13T13:01:20.770Z,10.73
2022-11-13T13:03:05.449Z,7.18
2022-11-13T13:04:47.559Z,10.52
2022-11-13T13:06:16.487Z,11.32
2022-11-13T13:07:48.690Z,7.82
2022-11-13T13:10:07.191Z,9.25
2022-11-13T13:12:02.405Z,13.90
2022-11-13T13:13:54.435Z,8.60
2022-11-13T13:15:26.796Z,10.23
2022-11-13T13:16:47.152Z,10.80
2022-11-13T13:18:16.710Z,5.20
2022-11-13T13:19:37.045Z,8.70
2022-11-13T13:20:57.410Z,9.52
2022-11-13T13:22:30.585Z,14.15
2022-11-13T13:23:53.310Z,8.07
2022-11-13T13:25:29.240Z,7.63
2022-11-13T13:26:49.470Z,10.10
2022-11-13T13:28:09.766Z,8.77
2022-11-13T13:29:30.800Z,6.78
2022-11-13T13:31:20.406Z,10.38
2022-11-13T13:33:12.761Z,7.90
2022-11-13T13:34:51.161Z,11.50
2022-11-13T13:36:35.564Z,8.32
2022-11-13T13:38:05.706Z,6.35
2022-11-13T13:39:55.553Z,6.68
2022-11-13T13:41:46.060Z,9.75
2022-11-13T13:43:24.563Z,6.68
2022-11-13T13:45:10.770Z,7.60
2022-11-13T13:46:32.567Z,6.65
2022-11-13T13:47:57.296Z,6.95
2022-11-13T13:49:22.558Z,8.07
2022-11-13T13:50:47.192Z,10.98
2022-11-13T13:52:07.599Z,8.38
2022-11-13T13:53:34.601Z,7.82
2022-11-13T13:54:55.417Z,9.10
2022-11-13T13:56:16.111Z,6.03
2022-11-13T13:57:41.525Z,12.05
2022-11-13T13:59:02.633Z,7.72
2022-11-13T14:00:22.998Z,10.05
2022-11-13T14:01:54.758Z,5.13
2022-11-13T14:03:26.154Z,7.45
2022-11-13T14:04:48.573Z,6.75
2022-11-13T14:06:23.729Z,8.13
2022-11-13T14:07:47.136Z,7.13
2022-11-13T14:09:08.834Z,6.07
2022-11-13T14:10:28.951Z,4.75
2022-11-13T14:12:00.800Z,4.78
2022-11-13T14:13:25.104Z,8.93
2022-11-13T14:14:45.178Z,7.55
2022-11-13T14:16:07.519Z,6.70
2022-11-13T14:17:29.184Z,9.13
2022-11-13T14:18:49.639Z,7.38
2022-11-13T14:20:12.037Z,10.88
2022-11-13T14:21:32.850Z,7.70
2022-11-13T14:22:56.634Z,8.50
2022-11-13T14:24:23.068Z,8.05
2022-11-13T14:25:44.853Z,6.63
2022-11-13T14:27:08.302Z,4.10
2022-11-13T14:28:32.029Z,5.80
2022-11-13T14:29:56.732Z,5.97
2022-11-13T14:31:17.337Z,7.47
2022-11-13T14:32:45.754Z,12.52
2022-11-13T14:34:14.877Z,7.22
2022-11-13T14:35:38.582Z,10.60
2022-11-13T14:37:28.639Z,10.68
2022-11-13T14:38:52.225Z,8.40
2022-11-13T14:40:21.687Z,8.27
2022-11-13T14:41:50.379Z,10.05
2022-11-13T14:43:27.925Z,9.25
2022-11-13T14:44:48.673Z,11.32
2022-11-13T14:46:44.453Z,7.63
2022-11-13T14:48:18.304Z,9.63
2022-11-13T14:49:38.345Z,7.25
2022-11-13T14:51:01.757Z,8.07
2022-11-13T14:52:29.638Z,6.57
2022-11-13T14:53:58.782Z,7.82
2022-11-13T14:55:28.322Z,9.73
2022-11-13T14:56:48.757Z,7.60
2022-11-13T14:58:13.866Z,6.60
2022-11-13T14:59:34.094Z,10.00
2022-11-13T15:02:15.142Z,12.55
2022-11-13T15:03:35.145Z,9.10
2022-11-13T15:04:55.274Z,12.40
2022-11-13T15:06:19.534Z,10.88
2022-11-13T15:07:45.517Z,11.27
2022-11-13T15:09:15.445Z,10.52
2022-11-13T15:10:36.829Z,7.35
2022-11-13T15:11:57.451Z,11.80
2022-11-13T15:13:18.594Z,11.13
2022-11-13T15:14:41.466Z,7.63
2022-11-13T15:16:01.998Z,9.82
2022-11-13T15:17:23.053Z,7.18
2022-11-13T15:18:48.309Z,11.90
2022-11-13T15:20:14.717Z,9.52
2022-11-13T15:21:34.985Z,7.47
2022-11-13T15:22:57.071Z,10.90
2022-11-13T15:24:17.824Z,8.02
2022-11-13T15:25:37.793Z,6.90
2022-11-13T15:26:58.036Z,9.00
2022-11-13T15:28:18.184Z,10.02
2022-11-13T15:29:38.533Z,8.50
2022-11-13T15:30:58.920Z,6.97
2022-11-13T15:32:19.165Z,8.73
2022-11-13T15:33:39.489Z,6.60
2022-11-13T15:34:59.830Z,11.63
2022-11-13T15:36:20.029Z,10.98
2022-11-13T15:37:40.382Z,7.55
2022-11-13T15:39:04.784Z,8.23
2022-11-13T15:40:26.694Z,7.15
2022-11-13T15:41:47.249Z,11.10
2022-11-13T15:43:15.429Z,7.53
2022-11-13T15:44:35.747Z,8.52
2022-11-13T15:45:56.174Z,7.75
2022-11-13T15:47:28.578Z,5.63
2022-11-13T15:48:49.689Z,4.75
2022-11-13T15:50:14.022Z,6.97
2022-11-13T15:51:42.271Z,10.40
2022-11-13T15:53:05.920Z,11.32
2022-11-13T15:54:34.625Z,7.43
2022-11-13T15:55:55.413Z,6.15
2022-11-13T15:57:21.629Z,6.55
2022-11-13T15:58:42.066Z,5.53
2022-11-13T16:00:02.520Z,6.32
2022-11-13T16:01:23.346Z,7.47
2022-11-13T16:02:43.538Z,5.60
2022-11-13T16:04:05.781Z,5.43
2022-11-13T16:05:29.459Z,5.45
2022-11-13T16:06:49.898Z,6.25
2022-11-13T16:08:13.293Z,8.77
2022-11-13T16:09:33.471Z,6.15
2022-11-13T16:10:54.972Z,7.07
2022-11-13T16:12:15.053Z,5.03
2022-11-13T16:13:35.025Z,4.50
2022-11-13T16:14:55.342Z,5.95
2022-11-13T16:16:23.227Z,7.00
2022-11-13T16:17:50.696Z,6.85
2022-11-13T16:19:20.971Z,5.80
2022-11-13T16:20:40.914Z,5.43
2022-11-13T16:22:01.037Z,7.15
2022-11-13T16:23:21.837Z,5.18
2022-11-13T16:24:41.908Z,7.15
2022-11-13T16:26:04.609Z,7.13
2022-11-13T16:27:33.931Z,4.97
2022-11-13T16:30:35.283Z,6.93
2022-11-13T16:31:55.457Z,7.53
2022-11-13T16:33:15.568Z,6.60
2022-11-13T16:34:35.849Z,9.35
2022-11-13T16:35:56.163Z,8.68
2022-11-13T16:37:22.413Z,7.28
2022-11-13T16:38:42.865Z,7.13
2022-11-13T16:40:02.941Z,6.22
2022-11-13T16:41:23.826Z,8.00
2022-11-13T16:42:44.434Z,6.32
2022-11-13T16:44:04.442Z,8.00
2022-11-13T16:45:24.613Z,7.00
2022-11-13T16:46:46.023Z,6.45
2022-11-13T16:48:12.166Z,7.90
2022-11-13T16:49:33.021Z,10.73
2022-11-13T16:50:53.214Z,7.10
2022-11-13T16:52:13.130Z,7.20
2022-11-13T16:53:33.285Z,12.63
2022-11-13T16:54:53.603Z,7.05
2022-11-13T16:56:17.453Z,7.25
2022-11-13T16:57:38.331Z,6.60
2022-11-13T16:58:58.997Z,7.28
2022-11-13T17:00:20.469Z,5.82
2022-11-13T17:01:40.578Z,8.00
2022-11-13T17:03:00.958Z,6.25
2022-11-13T17:04:21.419Z,5.50
2022-11-13T17:05:41.524Z,6.25
2022-11-13T17:07:01.571Z,6.00
2022-11-13T17:08:22.081Z,10.48
2022-11-13T17:09:43.665Z,9.80
2022-11-13T17:11:04.036Z,9.07
2022-11-13T17:12:24.265Z,10.85
2022-11-13T17:13:52.655Z,5.05
2022-11-13T17:15:12.875Z,8.48
2022-11-13T17:16:32.818Z,6.90
2022-11-13T17:17:57.226Z,7.18
2022-11-13T17:19:17.488Z,6.93
2022-11-13T17:20:37.388Z,10.40
2022-11-13T17:21:57.720Z,5.35
2022-11-13T17:23:18.130Z,8.02
2022-11-13T17:24:39.262Z,10.68
2022-11-13T17:25:59.556Z,7.05
2022-11-13T17:27:19.866Z,6.13
2022-11-13T17:28:40.419Z,9.68
2022-11-13T17:30:01.055Z,11.15
2022-11-13T17:31:21.919Z,8.32
2022-11-13T17:32:41.965Z,10.27
2022-11-13T17:34:02.313Z,8.35
2022-11-13T17:35:22.731Z,7.47
2022-11-13T17:36:43.185Z,7.38
2022-11-13T17:38:03.441Z,7.40
2022-11-13T17:39:23.847Z,7.80
2022-11-13T17:40:44.139Z,6.25
2022-11-13T17:42:04.671Z,5.28
2022-11-13T17:43:24.688Z,8.18
2022-11-13T17:44:44.880Z,8.40
2022-11-13T17:46:06.529Z,8.45
2022-11-13T17:47:26.565Z,6.90
2022-11-13T17:48:48.193Z,6.97
2022-11-13T17:50:08.583Z,10.70
2022-11-13T17:51:28.797Z,9.68
2022-11-13T17:52:49.374Z,10.80
2022-11-13T17:54:10.090Z,12.00
2022-11-13T17:55:29.977Z,8.02
2022-11-13T17:56:50.177Z,7.90
2022-11-13T17:58:10.350Z,9.20
2022-11-13T17:59:30.453Z,10.82
2022-11-13T18:00:51.467Z,9.98
2022-11-13T18:02:11.853Z,9.20
2022-11-13T18:03:32.395Z,6.82
2022-11-13T18:04:54.022Z,6.82
2022-11-13T18:06:19.498Z,7.53
2022-11-13T18:07:40.319Z,7.82
2022-11-13T18:09:00.501Z,8.05
2022-11-13T18:10:20.664Z,7.93
2022-11-13T18:11:40.938Z,10.00
2022-11-13T18:13:01.236Z,8.50
2022-11-13T18:14:21.600Z,7.10
2022-11-13T18:15:42.098Z,6.72
2022-11-13T18:17:01.989Z,8.93
2022-11-13T18:18:22.458Z,8.85
2022-11-13T18:19:42.651Z,6.72
2022-11-13T18:21:29.735Z,6.22
2022-11-13T18:22:49.949Z,9.23
2022-11-13T18:24:15.124Z,10.13
2022-11-13T18:25:39.632Z,9.93
2022-11-13T18:27:00.196Z,5.85
2022-11-13T18:28:20.206Z,9.98
2022-11-13T18:29:41.427Z,7.80
2022-11-13T18:31:16.529Z,8.05
2022-11-13T18:32:36.868Z,6.88
2022-11-13T18:34:02.653Z,9.68
2022-11-13T18:35:23.183Z,7.93
2022-11-13T18:36:44.112Z,7.43
2022-11-13T18:38:04.404Z,7.15
2022-11-13T18:39:24.685Z,6.95
2022-11-13T18:40:44.781Z,6.38
2022-11-13T18:42:05.027Z,9.50